createdAt,value
2019-05-20T00:01:53.166Z,13.70
2019-05-20T00:04:23.483Z,13.70
2019-05-20T00:06:53.741Z,13.70
2019-05-20T00:09:23.983Z,13.70
2019-05-20T00:11:54.199Z,13.70
2019-05-20T00:14:24.419Z,13.70
2019-05-20T00:16:54.668Z,13.70
2019-05-20T00:19:24.907Z,13.70
2019-05-20T00:21:55.170Z,13.70
2019-05-20T00:24:25.427Z,13.70
2019-05-20T00:26:55.651Z,13.70
2019-05-20T00:29:25.857Z,13.80
2019-05-20T00:31:56.077Z,13.80
2019-05-20T00:34:34.658Z,13.80
2019-05-20T00:36:58.209Z,13.80
2019-05-20T00:39:28.413Z,13.80
2019-05-20T00:41:58.632Z,13.70
2019-05-20T00:44:28.847Z,13.80
2019-05-20T00:46:59.046Z,13.80
2019-05-20T00:49:29.277Z,13.80
2019-05-20T00:51:59.511Z,13.80
2019-05-20T00:54:29.735Z,13.80
2019-05-20T00:56:59.967Z,13.90
2019-05-20T00:59:30.202Z,13.90
2019-05-20T01:02:00.485Z,13.90
2019-05-20T01:04:30.739Z,13.90
2019-05-20T01:07:00.976Z,13.90
2019-05-20T01:09:31.217Z,13.80
2019-05-20T01:12:01.515Z,13.80
2019-05-20T01:14:31.814Z,13.80
2019-05-20T01:17:02.084Z,13.80
2019-05-20T01:19:32.337Z,13.80
2019-05-20T01:22:02.523Z,13.80
2019-05-20T01:24:32.730Z,13.80
2019-05-20T01:27:02.953Z,13.80
2019-05-20T01:29:33.162Z,13.80
2019-05-20T01:32:03.387Z,13.90
2019-05-20T01:34:33.623Z,13.90
2019-05-20T01:37:03.838Z,13.90
2019-05-20T01:39:34.081Z,13.90
2019-05-20T01:42:04.441Z,13.90
2019-05-20T01:44:34.658Z,13.90
2019-05-20T01:47:04.887Z,13.80
2019-05-20T01:49:35.084Z,13.80
2019-05-20T01:52:05.474Z,13.80
2019-05-20T01:54:35.721Z,13.80
2019-05-20T01:57:06.163Z,13.80
2019-05-20T01:59:36.404Z,13.80
2019-05-20T02:02:06.617Z,13.80
2019-05-20T02:04:36.845Z,13.80
2019-05-20T02:07:07.070Z,13.80
2019-05-20T02:09:37.363Z,13.80
2019-05-20T02:12:07.580Z,13.80
2019-05-20T02:14:39.526Z,13.80
2019-05-20T02:17:10.063Z,13.80
2019-05-20T02:19:40.285Z,13.80
2019-05-20T02:22:10.502Z,13.80
2019-05-20T02:24:40.732Z,13.80
2019-05-20T02:27:11.034Z,13.70
2019-05-20T02:29:41.270Z,13.70
2019-05-20T02:32:11.490Z,13.60
2019-05-20T02:34:41.725Z,13.60
2019-05-20T02:37:11.933Z,13.50
2019-05-20T02:39:42.146Z,13.50
2019-05-20T02:42:12.364Z,13.50
2019-05-20T02:44:42.578Z,13.50
2019-05-20T02:47:12.879Z,13.50
2019-05-20T02:50:02.454Z,13.40
2019-05-20T02:52:32.733Z,13.40
2019-05-20T02:55:02.994Z,13.40
2019-05-20T02:57:33.225Z,13.40
2019-05-20T03:00:05.307Z,13.40
2019-05-20T03:02:35.590Z,13.40
2019-05-20T03:05:07.408Z,13.40
2019-05-20T03:07:37.626Z,13.40
2019-05-20T03:10:07.891Z,13.30
2019-05-20T03:12:38.127Z,13.30
2019-05-20T03:15:15.136Z,13.30
2019-05-20T03:17:45.423Z,13.30
2019-05-20T03:20:15.666Z,13.30
2019-05-20T03:22:45.920Z,13.30
2019-05-20T03:25:16.262Z,13.30
2019-05-20T03:27:46.507Z,13.30
2019-05-20T03:30:16.885Z,13.30
2019-05-20T03:32:47.129Z,13.30
2019-05-20T03:35:17.531Z,13.30
2019-05-20T03:37:47.764Z,13.30
2019-05-20T03:40:17.998Z,13.30
2019-05-20T03:42:48.229Z,13.20
2019-05-20T03:45:18.578Z,13.20
2019-05-20T03:47:48.797Z,13.20
2019-05-20T03:50:19.013Z,13.20
2019-05-20T03:52:49.231Z,13.20
2019-05-20T03:55:19.578Z,13.20
2019-05-20T03:57:49.808Z,13.20
2019-05-20T04:00:30.366Z,13.20
2019-05-20T04:03:00.581Z,13.30
2019-05-20T04:05:30.815Z,13.30
2019-05-20T04:08:01.030Z,13.40
2019-05-20T04:10:31.245Z,13.40
2019-05-20T04:13:01.460Z,13.40
2019-05-20T04:15:31.676Z,13.40
2019-05-20T04:18:02.039Z,13.50
2019-05-20T04:20:33.134Z,13.50
2019-05-20T04:23:03.414Z,13.50
2019-05-20T04:25:33.675Z,13.60
2019-05-20T04:28:04.033Z,13.60
2019-05-20T04:30:34.470Z,13.70
2019-05-20T04:33:04.845Z,13.70
2019-05-20T04:35:35.073Z,13.70
2019-05-20T04:38:05.368Z,13.70
2019-05-20T04:40:35.571Z,13.70
2019-05-20T04:43:05.896Z,13.80
2019-05-20T04:45:37.471Z,13.80
2019-05-20T04:48:07.731Z,13.80
2019-05-20T04:50:37.940Z,13.80
2019-05-20T04:53:08.309Z,13.80
2019-05-20T04:55:38.536Z,13.80
2019-05-20T04:58:08.747Z,13.80
2019-05-20T05:00:51.308Z,13.80
2019-05-20T05:03:23.179Z,13.80
2019-05-20T05:05:53.750Z,13.80
2019-05-20T05:08:24.360Z,13.80
2019-05-20T05:10:55.268Z,13.80
2019-05-20T05:13:37.532Z,13.80
2019-05-20T05:16:07.883Z,13.80
2019-05-20T05:18:38.179Z,13.80
2019-05-20T05:21:08.441Z,13.80
2019-05-20T05:23:38.817Z,13.80
2019-05-20T05:26:09.073Z,13.80
2019-05-20T05:28:39.904Z,13.80
2019-05-20T05:31:10.095Z,13.80
2019-05-20T05:33:40.344Z,13.80
2019-05-20T05:36:10.621Z,13.80
2019-05-20T05:38:40.909Z,13.90
2019-05-20T05:41:11.121Z,13.90
2019-05-20T05:43:41.415Z,14.10
2019-05-20T05:46:11.625Z,14.20
2019-05-20T05:48:41.875Z,14.30
2019-05-20T05:51:12.071Z,14.40
2019-05-20T05:53:42.289Z,14.40
2019-05-20T05:56:12.507Z,14.40
2019-05-20T05:58:42.727Z,14.30
2019-05-20T06:01:12.926Z,14.30
2019-05-20T06:03:43.141Z,14.20
2019-05-20T06:06:13.676Z,14.10
2019-05-20T06:08:43.983Z,14.00
2019-05-20T06:11:14.206Z,14.00
2019-05-20T06:13:44.429Z,13.90
2019-05-20T06:16:14.710Z,13.90
2019-05-20T06:18:44.929Z,14.00
2019-05-20T06:21:15.148Z,14.00
2019-05-20T06:23:45.367Z,14.10
2019-05-20T06:26:15.640Z,14.20
2019-05-20T06:28:45.875Z,14.30
2019-05-20T06:31:16.078Z,14.30
2019-05-20T06:33:46.333Z,14.40
2019-05-20T06:36:26.487Z,14.50
2019-05-20T06:38:51.882Z,14.60
2019-05-20T06:41:22.475Z,14.70
2019-05-20T06:43:52.730Z,14.80
2019-05-20T06:46:22.933Z,14.90
2019-05-20T06:48:53.173Z,15.00
2019-05-20T06:51:23.436Z,15.20
2019-05-20T06:53:53.686Z,15.20
2019-05-20T06:56:23.878Z,15.30
2019-05-20T06:58:54.097Z,15.30
2019-05-20T07:01:24.335Z,15.40
2019-05-20T07:03:54.718Z,15.50
2019-05-20T07:06:24.949Z,15.50
2019-05-20T07:08:55.146Z,15.50
2019-05-20T07:11:25.363Z,15.50
2019-05-20T07:13:55.565Z,15.40
2019-05-20T07:16:25.790Z,15.50
2019-05-20T07:18:56.068Z,15.50
2019-05-20T07:21:26.348Z,15.50
2019-05-20T07:23:56.565Z,15.40
2019-05-20T07:26:26.834Z,15.50
2019-05-20T07:28:57.066Z,15.60
2019-05-20T07:31:27.272Z,15.70
2019-05-20T07:33:57.492Z,15.80
2019-05-20T07:36:27.694Z,16.00
2019-05-20T07:38:57.893Z,16.20
2019-05-20T07:41:28.159Z,16.30
2019-05-20T07:43:58.409Z,16.30
2019-05-20T07:46:28.957Z,16.30
2019-05-20T07:49:00.220Z,16.20
2019-05-20T07:51:31.328Z,16.10
2019-05-20T07:54:03.203Z,16.00
2019-05-20T07:56:37.056Z,16.00
2019-05-20T07:59:10.394Z,16.00
2019-05-20T08:01:41.316Z,16.00
2019-05-20T08:04:11.531Z,16.10
2019-05-20T08:06:41.753Z,16.30
2019-05-20T08:09:11.962Z,16.30
2019-05-20T08:11:42.282Z,16.50
2019-05-20T08:14:12.490Z,16.50
2019-05-20T08:16:42.762Z,16.50
2019-05-20T08:19:12.997Z,16.50
2019-05-20T08:21:43.250Z,16.40
2019-05-20T08:24:13.557Z,16.40
2019-05-20T08:26:43.797Z,16.30
2019-05-20T08:29:14.078Z,16.20
2019-05-20T08:31:44.288Z,16.20
2019-05-20T08:34:14.511Z,16.40
2019-05-20T08:36:44.733Z,16.30
2019-05-20T08:39:14.940Z,16.30
2019-05-20T08:41:45.211Z,16.20
2019-05-20T08:44:15.461Z,16.10
2019-05-20T08:46:45.778Z,16.00
2019-05-20T08:49:16.075Z,16.00
2019-05-20T08:51:46.336Z,16.00
2019-05-20T08:54:16.694Z,16.00
2019-05-20T08:56:49.292Z,15.90
2019-05-20T08:59:18.826Z,15.90
2019-05-20T09:01:49.157Z,15.90
2019-05-20T09:04:19.513Z,16.00
2019-05-20T09:06:49.733Z,16.00
2019-05-20T09:09:20.014Z,16.10
2019-05-20T09:11:50.301Z,16.10
2019-05-20T09:14:20.536Z,16.20
2019-05-20T09:16:50.745Z,16.20
2019-05-20T09:19:20.999Z,16.10
2019-05-20T09:21:51.217Z,16.10
2019-05-20T09:24:22.561Z,16.10
2019-05-20T09:26:52.793Z,16.10
2019-05-20T09:29:23.011Z,16.10
2019-05-20T09:31:53.301Z,16.10
2019-05-20T09:34:23.756Z,16.10
2019-05-20T09:36:53.965Z,16.10
2019-05-20T09:39:24.185Z,16.10
2019-05-20T09:41:54.385Z,16.00
2019-05-20T09:44:24.748Z,16.00
2019-05-20T09:46:54.983Z,15.90
2019-05-20T09:49:25.299Z,15.80
2019-05-20T09:51:55.621Z,15.80
2019-05-20T09:54:25.830Z,15.90
2019-05-20T09:56:56.059Z,15.90
2019-05-20T09:59:40.445Z,15.90
2019-05-20T10:01:58.231Z,15.90
2019-05-20T10:04:28.457Z,15.80
2019-05-20T10:06:58.664Z,15.80
2019-05-20T10:09:28.926Z,15.80
2019-05-20T10:11:59.127Z,15.80
2019-05-20T10:14:29.356Z,15.90
2019-05-20T10:16:59.613Z,15.90
2019-05-20T10:19:29.862Z,15.90
2019-05-20T10:22:00.067Z,16.00
2019-05-20T10:24:30.313Z,16.00
2019-05-20T10:27:00.539Z,16.00
2019-05-20T10:29:30.800Z,15.90
2019-05-20T10:32:01.025Z,15.90
2019-05-20T10:34:31.249Z,15.70
2019-05-20T10:37:01.494Z,15.60
2019-05-20T10:39:31.720Z,15.60
2019-05-20T10:42:01.971Z,15.50
2019-05-20T10:44:32.192Z,15.60
2019-05-20T10:47:02.468Z,15.60
2019-05-20T10:49:32.749Z,15.60
2019-05-20T10:52:02.983Z,15.60
2019-05-20T10:54:33.189Z,15.60
2019-05-20T10:57:03.465Z,15.50
2019-05-20T10:59:33.741Z,15.50
2019-05-20T11:02:04.173Z,15.50
2019-05-20T11:04:35.548Z,15.40
2019-05-20T11:07:06.020Z,15.40
2019-05-20T11:09:36.282Z,15.50
2019-05-20T11:12:06.525Z,15.50
2019-05-20T11:14:37.519Z,15.70
2019-05-20T11:17:07.801Z,15.80
2019-05-20T11:19:38.950Z,15.80
2019-05-20T11:22:09.211Z,15.80
2019-05-20T11:24:39.477Z,15.80
2019-05-20T11:27:09.753Z,15.80
2019-05-20T11:29:39.982Z,15.80
2019-05-20T11:32:10.367Z,15.70
2019-05-20T11:34:40.613Z,15.70
2019-05-20T11:37:10.986Z,15.70
2019-05-20T11:39:41.939Z,15.70
2019-05-20T11:42:12.175Z,15.70
2019-05-20T11:44:42.413Z,15.80
2019-05-20T11:47:12.624Z,15.80
2019-05-20T11:49:43.295Z,15.70
2019-05-20T11:52:13.576Z,15.80
2019-05-20T11:54:43.896Z,16.00
2019-05-20T11:57:14.101Z,16.10
2019-05-20T11:59:44.350Z,16.40
2019-05-20T12:02:14.578Z,16.60
2019-05-20T12:04:44.837Z,16.80
2019-05-20T12:07:15.041Z,16.90
2019-05-20T12:09:49.422Z,16.90
2019-05-20T12:12:18.063Z,16.90
2019-05-20T12:14:48.384Z,16.80
2019-05-20T12:17:18.595Z,16.70
2019-05-20T12:19:51.920Z,16.70
2019-05-20T12:22:23.194Z,16.70
2019-05-20T12:24:53.438Z,16.50
2019-05-20T12:27:23.739Z,16.40
2019-05-20T12:29:54.394Z,16.40
2019-05-20T12:32:24.605Z,16.30
2019-05-20T12:34:54.810Z,16.30
2019-05-20T12:37:25.029Z,16.30
2019-05-20T12:40:06.581Z,16.30
2019-05-20T12:42:27.166Z,16.40
2019-05-20T12:44:57.382Z,16.50
2019-05-20T12:47:27.589Z,16.50
2019-05-20T12:49:57.791Z,16.60
2019-05-20T12:52:28.030Z,16.80
2019-05-20T12:55:07.877Z,16.80
2019-05-20T12:57:30.141Z,16.80
2019-05-20T13:00:00.410Z,16.90
2019-05-20T13:02:30.630Z,17.10
2019-05-20T13:05:00.832Z,17.10
2019-05-20T13:07:31.315Z,17.20
2019-05-20T13:10:02.997Z,17.20
2019-05-20T13:12:33.438Z,17.20
2019-05-20T13:15:08.685Z,17.20
2019-05-20T13:17:43.821Z,17.20
2019-05-20T13:20:11.110Z,17.10
2019-05-20T13:22:41.314Z,17.00
2019-05-20T13:25:11.765Z,16.90
2019-05-20T13:27:41.974Z,16.90
2019-05-20T13:30:13.099Z,16.90
2019-05-20T13:32:43.309Z,16.90
2019-05-20T13:35:14.255Z,16.90
2019-05-20T13:37:44.467Z,17.00
2019-05-20T13:40:15.129Z,17.00
2019-05-20T13:42:45.409Z,17.00
2019-05-20T13:45:15.762Z,16.90
2019-05-20T13:47:45.977Z,16.90
2019-05-20T13:50:17.515Z,17.00
2019-05-20T13:52:47.723Z,17.00
2019-05-20T13:55:18.990Z,17.10
2019-05-20T13:57:49.211Z,17.20
2019-05-20T14:00:20.259Z,17.20
2019-05-20T14:02:50.497Z,17.30
2019-05-20T14:05:20.781Z,17.30
2019-05-20T14:07:51.016Z,17.30
2019-05-20T14:10:21.416Z,17.40
2019-05-20T14:12:51.731Z,17.40
2019-05-20T14:15:22.960Z,17.40
2019-05-20T14:17:53.239Z,17.40
2019-05-20T14:20:23.565Z,17.40
2019-05-20T14:22:53.789Z,17.30
2019-05-20T14:25:24.066Z,17.20
2019-05-20T14:27:54.310Z,17.10
2019-05-20T14:30:24.598Z,16.90
2019-05-20T14:32:54.997Z,16.90
2019-05-20T14:35:25.272Z,16.80
2019-05-20T14:37:55.508Z,16.70
2019-05-20T14:40:25.811Z,16.70
2019-05-20T14:42:56.049Z,16.60
2019-05-20T14:45:26.336Z,16.50
2019-05-20T14:47:56.575Z,16.50
2019-05-20T14:50:26.865Z,16.40
2019-05-20T14:52:57.122Z,16.20
2019-05-20T14:55:27.371Z,16.10
2019-05-20T14:57:57.604Z,15.90
2019-05-20T15:00:27.886Z,15.70
2019-05-20T15:02:58.142Z,15.50
2019-05-20T15:05:28.370Z,15.30
2019-05-20T15:07:58.670Z,15.20
2019-05-20T15:10:28.885Z,15.10
2019-05-20T15:12:59.107Z,15.00
2019-05-20T15:15:29.395Z,15.00
2019-05-20T15:17:59.599Z,15.00
2019-05-20T15:20:29.823Z,14.90
2019-05-20T15:23:00.037Z,14.90
2019-05-20T15:25:30.264Z,14.90
2019-05-20T15:28:00.500Z,14.90
2019-05-20T15:30:30.732Z,14.90
2019-05-20T15:33:00.974Z,14.80
2019-05-20T15:35:31.170Z,14.80
2019-05-20T15:38:01.976Z,14.80
2019-05-20T15:40:32.183Z,14.70
2019-05-20T15:43:02.433Z,14.80
2019-05-20T15:45:32.704Z,14.70
2019-05-20T15:48:02.930Z,14.80
2019-05-20T15:50:33.233Z,14.70
2019-05-20T15:53:03.603Z,14.70
2019-05-20T15:55:33.794Z,14.80
2019-05-20T15:58:04.134Z,14.80
2019-05-20T16:00:34.425Z,14.70
2019-05-20T16:03:05.133Z,14.70
2019-05-20T16:05:35.373Z,14.60
2019-05-20T16:08:05.643Z,14.40
2019-05-20T16:10:35.857Z,14.30
2019-05-20T16:13:06.106Z,14.20
2019-05-20T16:15:36.384Z,14.10
2019-05-20T16:18:06.656Z,14.10
2019-05-20T16:20:36.880Z,14.00
2019-05-20T16:23:07.309Z,13.90
2019-05-20T16:25:37.592Z,13.80
2019-05-20T16:28:07.985Z,13.90
2019-05-20T16:30:38.349Z,13.80
2019-05-20T16:33:08.600Z,13.80
2019-05-20T16:35:38.826Z,13.70
2019-05-20T16:38:09.044Z,13.70
2019-05-20T16:40:39.278Z,13.60
2019-05-20T16:43:09.506Z,13.60
2019-05-20T16:45:39.718Z,13.50
2019-05-20T16:48:09.941Z,13.40
2019-05-20T16:50:40.184Z,13.40
2019-05-20T16:53:10.394Z,13.40
2019-05-20T16:55:40.619Z,13.40
2019-05-20T16:58:10.832Z,13.30
2019-05-20T17:00:41.545Z,13.30
2019-05-20T17:03:11.753Z,13.30
2019-05-20T17:05:42.008Z,13.20
2019-05-20T17:08:12.348Z,13.20
2019-05-20T17:10:42.573Z,13.20
2019-05-20T17:13:13.038Z,13.20
2019-05-20T17:15:43.282Z,13.20
2019-05-20T17:18:13.558Z,13.20
2019-05-20T17:20:46.304Z,13.20
2019-05-20T17:23:15.726Z,13.10
2019-05-20T17:25:46.028Z,13.10
2019-05-20T17:28:16.321Z,13.10
2019-05-20T17:30:46.613Z,13.00
2019-05-20T17:33:16.901Z,13.00
2019-05-20T17:35:47.139Z,13.00
2019-05-20T17:38:17.354Z,12.90
2019-05-20T17:40:47.609Z,12.90
2019-05-20T17:43:20.123Z,12.90
2019-05-20T17:45:49.922Z,12.90
2019-05-20T17:48:20.274Z,12.90
2019-05-20T17:50:50.789Z,12.90
2019-05-20T17:53:21.063Z,12.90
2019-05-20T17:55:51.313Z,12.80
2019-05-20T17:58:21.529Z,12.80
2019-05-20T18:00:51.766Z,12.80
2019-05-20T18:03:21.964Z,12.80
2019-05-20T18:05:52.261Z,12.80
2019-05-20T18:08:44.215Z,12.70
2019-05-20T18:11:19.242Z,12.80
2019-05-20T18:13:49.048Z,12.70
2019-05-20T18:16:19.346Z,12.70
2019-05-20T18:18:49.570Z,12.70
2019-05-20T18:21:20.103Z,12.70
2019-05-20T18:26:15.039Z,12.70
2019-05-20T18:28:45.297Z,12.70
2019-05-20T18:31:31.165Z,12.70
2019-05-20T18:33:47.449Z,12.60
2019-05-20T18:36:17.718Z,12.60
2019-05-20T18:38:49.620Z,12.60
2019-05-20T18:41:19.899Z,12.60
2019-05-20T18:43:50.127Z,12.60
2019-05-20T18:46:20.420Z,12.60
2019-05-20T18:48:50.644Z,12.60
2019-05-20T18:51:20.866Z,12.60
2019-05-20T18:53:51.082Z,12.60
2019-05-20T18:56:21.303Z,12.60
2019-05-20T18:58:51.540Z,12.60
2019-05-20T19:01:21.830Z,12.60
2019-05-20T19:03:52.035Z,12.60
2019-05-20T19:06:23.444Z,12.60
2019-05-20T19:08:53.649Z,12.60
2019-05-20T19:11:23.887Z,12.50
2019-05-20T19:13:54.100Z,12.50
2019-05-20T19:16:24.383Z,12.60
2019-05-20T19:18:54.858Z,12.50
2019-05-20T19:21:25.185Z,12.50
2019-05-20T19:23:55.589Z,12.50
2019-05-20T19:26:25.803Z,12.50
2019-05-20T19:28:56.037Z,12.50
2019-05-20T19:31:26.278Z,12.50
2019-05-20T19:33:56.479Z,12.50
2019-05-20T19:36:26.785Z,12.50
2019-05-20T19:38:57.026Z,12.50
2019-05-20T19:41:27.261Z,12.50
2019-05-20T19:43:57.483Z,12.60
2019-05-20T19:46:27.711Z,12.60
2019-05-20T19:48:57.978Z,12.60
2019-05-20T19:51:28.242Z,12.60
2019-05-20T19:53:58.491Z,12.60
2019-05-20T19:56:28.712Z,12.60
2019-05-20T19:58:59.039Z,12.60
2019-05-20T20:01:29.291Z,12.60
2019-05-20T20:03:59.511Z,12.60
2019-05-20T20:06:29.700Z,12.50
2019-05-20T20:08:59.904Z,12.50
2019-05-20T20:11:30.120Z,12.60
2019-05-20T20:14:00.410Z,12.60
2019-05-20T20:16:30.658Z,12.60
2019-05-20T20:19:00.862Z,12.60
2019-05-20T20:21:31.080Z,12.60
2019-05-20T20:24:01.267Z,12.60
2019-05-20T20:26:31.486Z,12.60
2019-05-20T20:29:01.772Z,12.60
2019-05-20T20:31:32.362Z,12.60
2019-05-20T20:34:02.641Z,12.60
2019-05-20T20:36:32.856Z,12.70
2019-05-20T20:39:04.439Z,12.70
2019-05-20T20:41:34.647Z,12.70
2019-05-20T20:44:05.016Z,12.70
2019-05-20T20:46:35.257Z,12.70
2019-05-20T20:49:05.460Z,12.70
2019-05-20T20:51:35.681Z,12.70
2019-05-20T20:54:05.897Z,12.70
2019-05-20T20:56:36.131Z,12.70
2019-05-20T20:59:06.370Z,12.70
2019-05-20T21:01:36.586Z,12.70
2019-05-20T21:04:06.880Z,12.70
2019-05-20T21:06:37.074Z,12.80
2019-05-20T21:09:07.575Z,12.80
2019-05-20T21:11:37.784Z,12.80
2019-05-20T21:14:08.015Z,12.80
2019-05-20T21:16:38.208Z,12.80
2019-05-20T21:19:08.440Z,12.80
2019-05-20T21:21:38.670Z,12.80
2019-05-20T21:24:08.968Z,12.80
2019-05-20T21:26:39.178Z,12.80
2019-05-20T21:29:09.556Z,12.80
2019-05-20T21:31:39.775Z,12.80
2019-05-20T21:34:10.006Z,12.80
2019-05-20T21:36:47.582Z,12.80
2019-05-20T21:39:12.163Z,12.80
2019-05-20T21:41:42.467Z,12.80
2019-05-20T21:44:12.657Z,12.80
2019-05-20T21:46:43.071Z,12.80
2019-05-20T21:49:13.340Z,12.80
2019-05-20T21:51:43.556Z,12.80
2019-05-20T21:54:13.773Z,12.80
2019-05-20T21:56:44.011Z,12.80
2019-05-20T21:59:14.212Z,12.90
2019-05-20T22:01:44.518Z,12.80
2019-05-20T22:04:14.709Z,12.80
2019-05-20T22:06:44.939Z,12.80
2019-05-20T22:09:15.521Z,12.90
2019-05-20T22:11:45.747Z,12.80
2019-05-20T22:14:15.980Z,12.90
2019-05-20T22:16:46.205Z,12.80
2019-05-20T22:19:16.411Z,12.80
2019-05-20T22:21:48.345Z,12.80
2019-05-20T22:24:18.552Z,12.80
2019-05-20T22:26:48.825Z,12.80
2019-05-20T22:29:19.032Z,12.80
2019-05-20T22:32:07.691Z,12.80
2019-05-20T22:34:37.908Z,12.80
2019-05-20T22:37:08.197Z,12.80
2019-05-20T22:39:38.434Z,12.80
2019-05-20T22:42:08.633Z,12.80
2019-05-20T22:44:38.853Z,12.80
2019-05-20T22:47:09.081Z,12.80
2019-05-20T22:49:39.472Z,12.80
2019-05-20T22:52:09.672Z,12.80
2019-05-20T22:54:39.915Z,12.80
2019-05-20T22:57:10.140Z,12.90
2019-05-20T22:59:40.359Z,12.90
2019-05-20T23:02:10.649Z,12.90
2019-05-20T23:04:40.887Z,12.90
2019-05-20T23:07:11.125Z,12.90
2019-05-20T23:09:41.543Z,12.90
2019-05-20T23:12:11.759Z,12.90
2019-05-20T23:15:01.327Z,12.90
2019-05-20T23:17:31.549Z,12.90
2019-05-20T23:20:01.865Z,12.80
2019-05-20T23:22:32.276Z,12.80
2019-05-20T23:25:02.484Z,12.90
2019-05-20T23:27:32.701Z,12.90
2019-05-20T23:30:03.073Z,12.90
2019-05-20T23:32:33.285Z,12.90
2019-05-20T23:35:04.148Z,12.90
2019-05-20T23:37:34.442Z,12.90
2019-05-20T23:40:07.091Z,12.90
2019-05-20T23:42:37.345Z,12.90
2019-05-20T23:45:10.947Z,12.90
2019-05-20T23:47:41.168Z,12.90
2019-05-20T23:50:11.415Z,12.90
2019-05-20T23:52:41.656Z,12.90
2019-05-20T23:55:12.823Z,12.90
2019-05-20T23:57:43.033Z,12.90
